DLH403 KJFK-EDDF
Flight info
| Callsign | DLH403 |
|---|---|
| Flight time | N/A |
| Altitude | 37000 |
| Route | MERIT DCT HFD DCT PUT DCT TOPPS DCT NEEKO/M083F380 DCT 54N050W 55N040W 55N030W 54N020W DCT MALOT DCT GISTI/N0482F390 DCT LONDU DCT WTD DCT ENJEX DCT ADHAV DCT AXNEF DCT ZIPWE DCT OZZIL DCT SAWPE Q63 CPT UL9 BIG L607 KONAN UL607 SPI T180 NIVNU T847 IMCOM IMCOM1C |
| Aircraft | A346/H-SDE2E3FGHIJ3J4J5M1RWXY/LB1D1 |
Departure
| Time | 2026-04-30 19:02 |
|---|---|
| Airport | John F. Kennedy International Airport (KJFK) |
Arrival
| Time | N/A |
|---|---|
| Airport | Frankfurt Main Airport (EDDF) |
| Time | Latitude | Longitude | Altitude | Speed | Heading |
|---|---|---|---|---|---|
| 2026-04-30 18:38 | 40.64398 | -73.77898 | 29 ft | 0 kts | 239° |
| 2026-04-30 18:51 | 40.64404 | -73.77885 | 34 ft | 4 kts | 239° |
| 2026-04-30 18:51 | 40.64417 | -73.77859 | 26 ft | 1 kts | 239° |
| 2026-04-30 18:51 | 40.64411 | -73.77867 | 33 ft | 4 kts | 215° |
| 2026-04-30 18:51 | 40.64432 | -73.77847 | 25 ft | 4 kts | 228° |
| 2026-04-30 18:52 | 40.64440 | -73.77829 | 25 ft | 4 kts | 268° |
| 2026-04-30 18:52 | 40.64440 | -73.77828 | 25 ft | 0 kts | 133° |
| 2026-04-30 18:52 | 40.64440 | -73.77827 | 25 ft | 0 kts | 133° |
| 2026-04-30 18:53 | 40.64437 | -73.77823 | 25 ft | 1 kts | 133° |
| 2026-04-30 18:53 | 40.64436 | -73.77822 | 25 ft | 0 kts | 133° |
| 2026-04-30 18:55 | 40.64427 | -73.77810 | 29 ft | 4 kts | 133° |
| 2026-04-30 18:55 | 40.64381 | -73.77737 | 29 ft | 10 kts | 137° |
| 2026-04-30 18:56 | 40.64267 | -73.77627 | 29 ft | 14 kts | 148° |
| 2026-04-30 18:56 | 40.64180 | -73.77560 | 29 ft | 15 kts | 147° |
| 2026-04-30 18:56 | 40.64096 | -73.77474 | 28 ft | 16 kts | 131° |
| 2026-04-30 18:57 | 40.64097 | -73.77247 | 29 ft | 17 kts | 31° |
| 2026-04-30 18:57 | 40.64203 | -73.77163 | 29 ft | 19 kts | 31° |
| 2026-04-30 18:57 | 40.64323 | -73.77068 | 29 ft | 21 kts | 31° |
| 2026-04-30 18:58 | 40.64580 | -73.76935 | 28 ft | 16 kts | 29° |
| 2026-04-30 18:58 | 40.64678 | -73.76860 | 28 ft | 17 kts | 31° |
| 2026-04-30 18:58 | 40.64782 | -73.76775 | 29 ft | 18 kts | 32° |
| 2026-04-30 18:59 | 40.65010 | -73.76594 | 29 ft | 19 kts | 30° |
| 2026-04-30 19:00 | 40.65025 | -73.76356 | 31 ft | 7 kts | 174° |
| 2026-04-30 19:00 | 40.65015 | -73.76359 | 31 ft | 0 kts | 213° |
| 2026-04-30 19:00 | 40.64658 | -73.76641 | 28 ft | 83 kts | 211° |
| 2026-04-30 19:01 | 40.63078 | -73.77878 | 34 ft | 175 kts | 211° |
| 2026-04-30 19:01 | 40.61960 | -73.78760 | 257 ft | 194 kts | 211° |
| 2026-04-30 19:02 | 40.59651 | -73.80586 | 1468 ft | 193 kts | 212° |
| 2026-04-30 19:02 | 40.57355 | -73.81784 | 2197 ft | 212 kts | 178° |
| 2026-04-30 19:03 | 40.55116 | -73.79841 | 2812 ft | 242 kts | 116° |
| 2026-04-30 19:03 | 40.55082 | -73.75697 | 3542 ft | 268 kts | 61° |
| 2026-04-30 19:04 | 40.57241 | -73.71845 | 4907 ft | 275 kts | 48° |
| 2026-04-30 19:04 | 40.59760 | -73.67946 | 6410 ft | 283 kts | 43° |
| 2026-04-30 19:05 | 40.63098 | -73.65276 | 7866 ft | 286 kts | 21° |
| 2026-04-30 19:05 | 40.66803 | -73.63007 | 9183 ft | 301 kts | 22° |
| 2026-04-30 19:06 | 40.70648 | -73.60489 | 10330 ft | 318 kts | 23° |
| 2026-04-30 19:06 | 40.72666 | -73.59131 | 10644 ft | 334 kts | 24° |
| 2026-04-30 19:06 | 40.76992 | -73.56188 | 11256 ft | 368 kts | 24° |
| 2026-04-30 19:07 | 40.81755 | -73.52923 | 11885 ft | 401 kts | 24° |
| 2026-04-30 19:07 | 40.84263 | -73.51197 | 12425 ft | 410 kts | 24° |
| 2026-04-30 19:08 | 40.89381 | -73.47663 | 13768 ft | 420 kts | 24° |
| 2026-04-30 19:08 | 40.94641 | -73.44031 | 14951 ft | 430 kts | 24° |
| 2026-04-30 19:08 | 40.97315 | -73.42182 | 15561 ft | 435 kts | 24° |
| 2026-04-30 19:09 | 53.98456 | -50.06542 | 38492 ft | 496 kts | 67° |
| 2026-04-30 19:09 | 53.99646 | -50.01076 | 38246 ft | 489 kts | 70° |
| 2026-04-30 19:09 | 54.00631 | -49.95577 | 38237 ft | 487 kts | 74° |
| 2026-04-30 19:10 | 54.07040 | -49.50425 | 38227 ft | 488 kts | 75° |
| 2026-04-30 19:11 | 54.11790 | -49.16116 | 38232 ft | 488 kts | 76° |
| 2026-04-30 19:11 | 54.75984 | -43.41714 | 38701 ft | 482 kts | 78° |
| 2026-04-30 19:12 | 54.76805 | -43.29765 | 38344 ft | 487 kts | 78° |
| 2026-04-30 19:12 | 54.78594 | -43.06578 | 38315 ft | 487 kts | 77° |
| 2026-04-30 19:13 | 54.82346 | -42.60061 | 38312 ft | 489 kts | 77° |
| 2026-04-30 19:14 | 54.84171 | -42.36629 | 38314 ft | 487 kts | 77° |
| 2026-04-30 19:14 | 54.85946 | -42.13257 | 38318 ft | 486 kts | 77° |
| 2026-04-30 19:15 | 54.87666 | -41.90006 | 38318 ft | 487 kts | 78° |
| 2026-04-30 19:15 | 54.89271 | -41.67903 | 38587 ft | 479 kts | 78° |
| 2026-04-30 19:15 | 54.89660 | -41.62125 | 38420 ft | 484 kts | 78° |
| 2026-04-30 19:16 | 54.90057 | -41.56647 | 37482 ft | 459 kts | 82° |
| 2026-04-30 19:16 | 54.90457 | -41.51051 | 38138 ft | 471 kts | 78° |
| 2026-04-30 19:16 | 54.91236 | -41.39626 | 38312 ft | 480 kts | 78° |
| 2026-04-30 19:17 | 54.91637 | -41.33809 | 38316 ft | 485 kts | 78° |
| 2026-04-30 19:17 | 54.93158 | -41.11207 | 38321 ft | 487 kts | 78° |
| 2026-04-30 19:18 | 53.00034 | -14.08204 | 38321 ft | 458 kts | 91° |
| 2026-04-30 19:18 | 52.99968 | -13.97541 | 38460 ft | 470 kts | 95° |
| 2026-04-30 19:19 | 52.99408 | -13.86704 | 38216 ft | 470 kts | 95° |
| 2026-04-30 19:19 | 52.97694 | -13.54573 | 38177 ft | 461 kts | 96° |
| 2026-04-30 19:20 | 52.96543 | -13.33309 | 38171 ft | 462 kts | 96° |
| 2026-04-30 19:21 | 52.94763 | -13.01606 | 38171 ft | 458 kts | 97° |
| 2026-04-30 19:22 | 52.92269 | -12.59672 | 38177 ft | 455 kts | 98° |
| 2026-04-30 19:23 | 52.85809 | -11.97536 | 38175 ft | 452 kts | 102° |
| 2026-04-30 19:24 | 52.82252 | -11.66778 | 38170 ft | 452 kts | 102° |
| 2026-04-30 19:25 | 52.76125 | -11.15448 | 38167 ft | 455 kts | 103° |
| 2026-04-30 19:26 | 52.69131 | -10.59148 | 38168 ft | 460 kts | 104° |
| 2026-04-30 19:27 | 52.59530 | -9.85385 | 38186 ft | 458 kts | 105° |
| 2026-04-30 19:28 | 52.55166 | -9.53092 | 38162 ft | 453 kts | 105° |
| 2026-04-30 19:29 | 52.35922 | -8.18403 | 38155 ft | 448 kts | 107° |
| 2026-04-30 19:30 | 52.20718 | -7.19638 | 38174 ft | 452 kts | 108° |
| 2026-04-30 19:31 | 52.07391 | -6.17636 | 38161 ft | 454 kts | 105° |
| 2026-04-30 19:31 | 51.95545 | -5.45909 | 38159 ft | 452 kts | 109° |
| 2026-04-30 19:32 | 51.90948 | -5.18393 | 38167 ft | 453 kts | 104° |
| 2026-04-30 19:32 | 51.88605 | -4.98303 | 38156 ft | 453 kts | 104° |
| 2026-04-30 19:33 | 51.83915 | -4.59048 | 38172 ft | 451 kts | 104° |
| 2026-04-30 19:33 | 51.78092 | -4.12071 | 38184 ft | 448 kts | 104° |
| 2026-04-30 19:34 | 51.71906 | -3.63726 | 38206 ft | 443 kts | 104° |
| 2026-04-30 19:34 | 51.68434 | -3.13580 | 38394 ft | 444 kts | 98° |
| 2026-04-30 19:35 | 51.66924 | -2.89166 | 38400 ft | 444 kts | 98° |
| 2026-04-30 19:35 | 51.65366 | -2.64859 | 38233 ft | 449 kts | 98° |
| 2026-04-30 19:35 | 51.63795 | -2.41043 | 38227 ft | 449 kts | 98° |
| 2026-04-30 19:36 | 51.60426 | -1.92428 | 38245 ft | 453 kts | 98° |
| 2026-04-30 19:36 | 51.51876 | -1.34555 | 38255 ft | 450 kts | 110° |
| 2026-04-30 19:37 | 51.49864 | -1.24990 | 38258 ft | 451 kts | 108° |
| 2026-04-30 19:37 | 51.48340 | -1.15200 | 38261 ft | 452 kts | 102° |
| 2026-04-30 19:38 | 51.44767 | -0.86311 | 38252 ft | 449 kts | 102° |
| 2026-04-30 19:38 | 51.38826 | -0.39781 | 38265 ft | 449 kts | 103° |
| 2026-04-30 19:39 | 51.37731 | -0.31398 | 37682 ft | 454 kts | 103° |
| 2026-04-30 19:39 | 40.64398 | -73.77898 | 37682 ft | 3 kts | 239° |